sensor_id;sensor_type;location;lat;lon;timestamp;temperature;humidity
16301;DHT22;8258;51.020;4.248;2023-08-17T00:01:44;19.60;99.90
16301;DHT22;8258;51.020;4.248;2023-08-17T00:04:11;19.70;99.90
16301;DHT22;8258;51.020;4.248;2023-08-17T00:06:38;19.70;99.90
16301;DHT22;8258;51.020;4.248;2023-08-17T00:09:05;19.70;99.90
16301;DHT22;8258;51.020;4.248;2023-08-17T00:11:32;19.60;99.90
16301;DHT22;8258;51.020;4.248;2023-08-17T00:14:00;19.50;99.90
16301;DHT22;8258;51.020;4.248;2023-08-17T00:16:27;19.40;99.90
16301;DHT22;8258;51.020;4.248;2023-08-17T00:18:55;19.50;99.90
16301;DHT22;8258;51.020;4.248;2023-08-17T00:21:22;19.40;99.90
16301;DHT22;8258;51.020;4.248;2023-08-17T00:23:49;19.30;99.90
16301;DHT22;8258;51.020;4.248;2023-08-17T00:26:16;19.20;99.90
16301;DHT22;8258;51.020;4.248;2023-08-17T00:28:43;19.20;99.90
16301;DHT22;8258;51.020;4.248;2023-08-17T00:31:10;19.10;99.90
16301;DHT22;8258;51.020;4.248;2023-08-17T00:33:37;19.20;99.90
16301;DHT22;8258;51.020;4.248;2023-08-17T00:36:06;19.10;99.90
16301;DHT22;8258;51.020;4.248;2023-08-17T00:38:33;19.10;99.90
16301;DHT22;8258;51.020;4.248;2023-08-17T00:41:00;19.10;99.90
16301;DHT22;8258;51.020;4.248;2023-08-17T00:43:26;19.20;99.90
16301;DHT22;8258;51.020;4.248;2023-08-17T00:45:54;19.10;99.90
16301;DHT22;8258;51.020;4.248;2023-08-17T00:48:21;19.20;99.90
16301;DHT22;8258;51.020;4.248;2023-08-17T00:50:49;19.20;99.90
16301;DHT22;8258;51.020;4.248;2023-08-17T00:53:18;19.20;99.90
16301;DHT22;8258;51.020;4.248;2023-08-17T00:55:46;19.20;99.90
16301;DHT22;8258;51.020;4.248;2023-08-17T00:58:14;19.20;99.90
16301;DHT22;8258;51.020;4.248;2023-08-17T01:00:41;19.20;99.90
16301;DHT22;8258;51.020;4.248;2023-08-17T01:03:08;19.20;99.90
16301;DHT22;8258;51.020;4.248;2023-08-17T01:05:35;19.20;99.90
16301;DHT22;8258;51.020;4.248;2023-08-17T01:08:03;19.30;99.90
16301;DHT22;8258;51.020;4.248;2023-08-17T01:10:40;19.20;99.90
16301;DHT22;8258;51.020;4.248;2023-08-17T01:13:10;19.20;99.90
16301;DHT22;8258;51.020;4.248;2023-08-17T01:15:42;19.20;99.90
16301;DHT22;8258;51.020;4.248;2023-08-17T01:18:17;19.10;99.90
16301;DHT22;8258;51.020;4.248;2023-08-17T01:20:45;19.10;99.90
16301;DHT22;8258;51.020;4.248;2023-08-17T01:23:14;18.90;99.90
16301;DHT22;8258;51.020;4.248;2023-08-17T01:25:41;18.90;99.90
16301;DHT22;8258;51.020;4.248;2023-08-17T01:28:08;18.80;99.90
16301;DHT22;8258;51.020;4.248;2023-08-17T01:30:41;18.70;99.90
16301;DHT22;8258;51.020;4.248;2023-08-17T01:33:16;18.70;99.90
16301;DHT22;8258;51.020;4.248;2023-08-17T01:35:52;18.60;99.90
16301;DHT22;8258;51.020;4.248;2023-08-17T01:38:23;18.60;99.90
16301;DHT22;8258;51.020;4.248;2023-08-17T01:40:52;18.60;99.90
16301;DHT22;8258;51.020;4.248;2023-08-17T01:43:20;18.60;99.90
16301;DHT22;8258;51.020;4.248;2023-08-17T01:45:47;18.70;99.90
16301;DHT22;8258;51.020;4.248;2023-08-17T01:48:14;18.70;99.90
16301;DHT22;8258;51.020;4.248;2023-08-17T01:50:41;18.80;99.90
16301;DHT22;8258;51.020;4.248;2023-08-17T01:53:08;18.70;99.90
16301;DHT22;8258;51.020;4.248;2023-08-17T01:55:38;18.60;99.90
16301;DHT22;8258;51.020;4.248;2023-08-17T01:58:05;18.60;99.90
16301;DHT22;8258;51.020;4.248;2023-08-17T02:00:32;18.60;99.90
16301;DHT22;8258;51.020;4.248;2023-08-17T02:02:59;18.60;99.90
16301;DHT22;8258;51.020;4.248;2023-08-17T02:05:26;18.50;99.90
16301;DHT22;8258;51.020;4.248;2023-08-17T02:07:54;18.50;99.90
16301;DHT22;8258;51.020;4.248;2023-08-17T02:10:21;18.50;99.90
16301;DHT22;8258;51.020;4.248;2023-08-17T02:12:49;18.40;99.90
16301;DHT22;8258;51.020;4.248;2023-08-17T02:15:17;18.30;99.90
16301;DHT22;8258;51.020;4.248;2023-08-17T02:17:43;18.20;99.90
16301;DHT22;8258;51.020;4.248;2023-08-17T02:20:11;18.10;99.90
16301;DHT22;8258;51.020;4.248;2023-08-17T02:22:39;18.00;99.90
16301;DHT22;8258;51.020;4.248;2023-08-17T02:25:07;17.90;99.90
16301;DHT22;8258;51.020;4.248;2023-08-17T02:27:34;17.90;99.90
16301;DHT22;8258;51.020;4.248;2023-08-17T02:30:03;17.80;99.90
16301;DHT22;8258;51.020;4.248;2023-08-17T02:32:30;17.80;99.90
16301;DHT22;8258;51.020;4.248;2023-08-17T02:34:57;17.80;99.90
16301;DHT22;8258;51.020;4.248;2023-08-17T02:37:23;17.70;99.90
16301;DHT22;8258;51.020;4.248;2023-08-17T02:39:50;17.70;99.90
16301;DHT22;8258;51.020;4.248;2023-08-17T02:42:17;17.80;99.90
16301;DHT22;8258;51.020;4.248;2023-08-17T02:44:44;17.80;99.90
16301;DHT22;8258;51.020;4.248;2023-08-17T02:47:13;17.70;99.90
16301;DHT22;8258;51.020;4.248;2023-08-17T02:49:40;17.80;99.90
16301;DHT22;8258;51.020;4.248;2023-08-17T02:52:07;17.70;99.90
16301;DHT22;8258;51.020;4.248;2023-08-17T02:54:34;17.70;99.90
16301;DHT22;8258;51.020;4.248;2023-08-17T02:57:01;17.60;99.90
16301;DHT22;8258;51.020;4.248;2023-08-17T02:59:27;17.60;99.90
16301;DHT22;8258;51.020;4.248;2023-08-17T03:01:54;17.60;99.90
16301;DHT22;8258;51.020;4.248;2023-08-17T03:04:23;17.60;99.90
16301;DHT22;8258;51.020;4.248;2023-08-17T03:06:50;17.60;99.90
16301;DHT22;8258;51.020;4.248;2023-08-17T03:09:17;17.50;99.90
16301;DHT22;8258;51.020;4.248;2023-08-17T03:11:44;17.50;99.90
16301;DHT22;8258;51.020;4.248;2023-08-17T03:14:11;17.50;99.90
16301;DHT22;8258;51.020;4.248;2023-08-17T03:16:38;17.70;99.90
16301;DHT22;8258;51.020;4.248;2023-08-17T03:19:06;17.70;99.90
16301;DHT22;8258;51.020;4.248;2023-08-17T03:21:38;17.70;99.90
16301;DHT22;8258;51.020;4.248;2023-08-17T03:24:06;17.70;99.90
16301;DHT22;8258;51.020;4.248;2023-08-17T03:26:33;17.70;99.90
16301;DHT22;8258;51.020;4.248;2023-08-17T03:29:00;17.70;99.90
16301;DHT22;8258;51.020;4.248;2023-08-17T03:31:27;17.70;99.90
16301;DHT22;8258;51.020;4.248;2023-08-17T03:33:54;17.70;99.90
16301;DHT22;8258;51.020;4.248;2023-08-17T03:36:22;17.60;99.90
16301;DHT22;8258;51.020;4.248;2023-08-17T03:38:50;17.60;99.90
16301;DHT22;8258;51.020;4.248;2023-08-17T03:41:17;17.60;99.90
16301;DHT22;8258;51.020;4.248;2023-08-17T03:43:44;17.70;99.90
16301;DHT22;8258;51.020;4.248;2023-08-17T03:46:11;17.70;99.90
16301;DHT22;8258;51.020;4.248;2023-08-17T03:48:38;17.80;99.90
16301;DHT22;8258;51.020;4.248;2023-08-17T03:51:05;17.80;99.90
16301;DHT22;8258;51.020;4.248;2023-08-17T03:53:31;17.80;99.90
16301;DHT22;8258;51.020;4.248;2023-08-17T03:56:00;17.80;99.90
16301;DHT22;8258;51.020;4.248;2023-08-17T03:58:27;17.80;99.90
16301;DHT22;8258;51.020;4.248;2023-08-17T04:00:59;17.80;99.90
16301;DHT22;8258;51.020;4.248;2023-08-17T04:03:26;17.90;99.90
16301;DHT22;8258;51.020;4.248;2023-08-17T04:05:53;17.90;99.90
16301;DHT22;8258;51.020;4.248;2023-08-17T04:08:19;17.90;99.90
16301;DHT22;8258;51.020;4.248;2023-08-17T04:10:46;17.90;99.90
16301;DHT22;8258;51.020;4.248;2023-08-17T04:13:15;17.90;99.90
16301;DHT22;8258;51.020;4.248;2023-08-17T04:15:42;18.00;99.90
16301;DHT22;8258;51.020;4.248;2023-08-17T04:18:09;18.00;99.90
16301;DHT22;8258;51.020;4.248;2023-08-17T04:20:36;18.00;99.90
16301;DHT22;8258;51.020;4.248;2023-08-17T04:23:03;18.00;99.90
16301;DHT22;8258;51.020;4.248;2023-08-17T04:25:30;18.00;99.90
16301;DHT22;8258;51.020;4.248;2023-08-17T04:27:57;17.90;99.90
16301;DHT22;8258;51.020;4.248;2023-08-17T04:30:25;17.90;99.90
16301;DHT22;8258;51.020;4.248;2023-08-17T04:32:52;17.90;99.90
16301;DHT22;8258;51.020;4.248;2023-08-17T04:35:20;17.90;99.90
16301;DHT22;8258;51.020;4.248;2023-08-17T04:37:47;17.90;99.90
16301;DHT22;8258;51.020;4.248;2023-08-17T04:40:14;17.90;99.90
16301;DHT22;8258;51.020;4.248;2023-08-17T04:42:41;17.90;99.90
16301;DHT22;8258;51.020;4.248;2023-08-17T04:45:08;17.80;99.90
16301;DHT22;8258;51.020;4.248;2023-08-17T04:47:37;17.60;99.90
16301;DHT22;8258;51.020;4.248;2023-08-17T04:50:05;17.60;99.90
16301;DHT22;8258;51.020;4.248;2023-08-17T04:52:32;17.60;99.90
16301;DHT22;8258;51.020;4.248;2023-08-17T04:54:59;17.50;99.90
16301;DHT22;8258;51.020;4.248;2023-08-17T04:57:26;17.60;99.90
16301;DHT22;8258;51.020;4.248;2023-08-17T04:59:53;17.60;99.90
16301;DHT22;8258;51.020;4.248;2023-08-17T05:02:20;17.70;99.90
16301;DHT22;8258;51.020;4.248;2023-08-17T05:04:49;17.80;99.90
16301;DHT22;8258;51.020;4.248;2023-08-17T05:07:15;17.80;99.90
16301;DHT22;8258;51.020;4.248;2023-08-17T05:09:42;17.80;99.90
16301;DHT22;8258;51.020;4.248;2023-08-17T05:12:09;17.80;99.90
16301;DHT22;8258;51.020;4.248;2023-08-17T05:14:36;17.80;99.90
16301;DHT22;8258;51.020;4.248;2023-08-17T05:17:03;17.80;99.90
16301;DHT22;8258;51.020;4.248;2023-08-17T05:19:30;17.80;99.90
16301;DHT22;8258;51.020;4.248;2023-08-17T05:21:59;17.80;99.90
16301;DHT22;8258;51.020;4.248;2023-08-17T05:24:26;17.80;99.90
16301;DHT22;8258;51.020;4.248;2023-08-17T05:26:54;17.90;99.90
16301;DHT22;8258;51.020;4.248;2023-08-17T05:29:21;17.90;99.90
16301;DHT22;8258;51.020;4.248;2023-08-17T05:31:48;17.90;99.90
16301;DHT22;8258;51.020;4.248;2023-08-17T05:34:15;18.00;99.90
16301;DHT22;8258;51.020;4.248;2023-08-17T05:36:42;18.10;99.90
16301;DHT22;8258;51.020;4.248;2023-08-17T05:39:10;18.10;99.90
16301;DHT22;8258;51.020;4.248;2023-08-17T05:41:37;18.10;99.90
16301;DHT22;8258;51.020;4.248;2023-08-17T05:44:04;18.00;99.90
16301;DHT22;8258;51.020;4.248;2023-08-17T05:46:32;18.00;99.90
16301;DHT22;8258;51.020;4.248;2023-08-17T05:49:00;18.00;99.90
16301;DHT22;8258;51.020;4.248;2023-08-17T05:51:27;18.10;99.90
16301;DHT22;8258;51.020;4.248;2023-08-17T05:53:54;18.20;99.90
16301;DHT22;8258;51.020;4.248;2023-08-17T05:56:23;18.20;99.90
16301;DHT22;8258;51.020;4.248;2023-08-17T05:58:50;18.30;99.90
16301;DHT22;8258;51.020;4.248;2023-08-17T06:01:16;18.30;99.90
16301;DHT22;8258;51.020;4.248;2023-08-17T06:03:43;18.40;99.90
16301;DHT22;8258;51.020;4.248;2023-08-17T06:06:11;18.40;99.90
16301;DHT22;8258;51.020;4.248;2023-08-17T06:08:38;18.40;99.90
16301;DHT22;8258;51.020;4.248;2023-08-17T06:11:05;18.40;99.90
16301;DHT22;8258;51.020;4.248;2023-08-17T06:13:33;18.40;99.90
16301;DHT22;8258;51.020;4.248;2023-08-17T06:16:01;18.40;99.90
16301;DHT22;8258;51.020;4.248;2023-08-17T06:18:29;18.40;99.90
16301;DHT22;8258;51.020;4.248;2023-08-17T06:20:56;18.50;99.90
16301;DHT22;8258;51.020;4.248;2023-08-17T06:23:23;18.50;99.90
16301;DHT22;8258;51.020;4.248;2023-08-17T06:25:51;18.50;99.90
16301;DHT22;8258;51.020;4.248;2023-08-17T06:28:17;18.40;99.90
16301;DHT22;8258;51.020;4.248;2023-08-17T06:30:46;18.50;99.90
16301;DHT22;8258;51.020;4.248;2023-08-17T06:33:13;18.50;99.90
16301;DHT22;8258;51.020;4.248;2023-08-17T06:35:40;18.50;99.90
16301;DHT22;8258;51.020;4.248;2023-08-17T06:38:07;18.70;99.90
16301;DHT22;8258;51.020;4.248;2023-08-17T06:40:33;18.80;99.90
16301;DHT22;8258;51.020;4.248;2023-08-17T06:43:00;18.90;99.90
16301;DHT22;8258;51.020;4.248;2023-08-17T06:45:27;18.90;99.90
16301;DHT22;8258;51.020;4.248;2023-08-17T06:47:56;18.80;99.90
16301;DHT22;8258;51.020;4.248;2023-08-17T06:50:23;18.80;99.90
16301;DHT22;8258;51.020;4.248;2023-08-17T06:52:50;18.90;99.90
16301;DHT22;8258;51.020;4.248;2023-08-17T06:55:17;18.90;99.90
16301;DHT22;8258;51.020;4.248;2023-08-17T06:57:44;18.90;99.90
16301;DHT22;8258;51.020;4.248;2023-08-17T07:00:11;18.90;99.90
16301;DHT22;8258;51.020;4.248;2023-08-17T07:02:38;18.90;99.90
16301;DHT22;8258;51.020;4.248;2023-08-17T07:05:07;19.00;99.90
16301;DHT22;8258;51.020;4.248;2023-08-17T07:07:36;19.00;99.90
16301;DHT22;8258;51.020;4.248;2023-08-17T07:10:05;19.00;99.90
16301;DHT22;8258;51.020;4.248;2023-08-17T07:12:32;19.00;99.90
16301;DHT22;8258;51.020;4.248;2023-08-17T07:14:59;19.10;99.90
16301;DHT22;8258;51.020;4.248;2023-08-17T07:17:26;19.00;99.90
16301;DHT22;8258;51.020;4.248;2023-08-17T07:19:53;19.10;99.90
16301;DHT22;8258;51.020;4.248;2023-08-17T07:22:21;19.30;99.90
16301;DHT22;8258;51.020;4.248;2023-08-17T07:24:48;19.30;99.90
16301;DHT22;8258;51.020;4.248;2023-08-17T07:27:15;19.50;99.90
16301;DHT22;8258;51.020;4.248;2023-08-17T07:29:42;19.40;99.90
16301;DHT22;8258;51.020;4.248;2023-08-17T07:32:09;19.40;99.90
16301;DHT22;8258;51.020;4.248;2023-08-17T07:34:36;19.40;99.90
16301;DHT22;8258;51.020;4.248;2023-08-17T07:37:04;19.40;99.90
16301;DHT22;8258;51.020;4.248;2023-08-17T07:39:33;19.40;99.90
16301;DHT22;8258;51.020;4.248;2023-08-17T07:42:00;19.50;99.90
16301;DHT22;8258;51.020;4.248;2023-08-17T07:44:27;19.50;99.90
16301;DHT22;8258;51.020;4.248;2023-08-17T07:46:57;19.70;99.90
16301;DHT22;8258;51.020;4.248;2023-08-17T07:49:25;19.70;99.90
16301;DHT22;8258;51.020;4.248;2023-08-17T07:51:51;19.80;99.90
16301;DHT22;8258;51.020;4.248;2023-08-17T07:54:18;19.80;99.90
16301;DHT22;8258;51.020;4.248;2023-08-17T07:56:47;20.10;99.90
16301;DHT22;8258;51.020;4.248;2023-08-17T07:59:14;20.30;99.90
16301;DHT22;8258;51.020;4.248;2023-08-17T08:01:41;20.40;99.90
16301;DHT22;8258;51.020;4.248;2023-08-17T08:04:11;20.40;99.90
16301;DHT22;8258;51.020;4.248;2023-08-17T08:06:38;20.40;99.90
16301;DHT22;8258;51.020;4.248;2023-08-17T08:09:05;20.40;99.90
16301;DHT22;8258;51.020;4.248;2023-08-17T08:11:32;20.30;99.90
16301;DHT22;8258;51.020;4.248;2023-08-17T08:14:01;20.40;99.90
16301;DHT22;8258;51.020;4.248;2023-08-17T08:16:28;20.70;99.90
16301;DHT22;8258;51.020;4.248;2023-08-17T08:18:56;21.00;99.90
16301;DHT22;8258;51.020;4.248;2023-08-17T08:21:23;21.00;99.90
16301;DHT22;8258;51.020;4.248;2023-08-17T08:23:50;21.10;99.90
16301;DHT22;8258;51.020;4.248;2023-08-17T08:26:17;21.20;99.90
16301;DHT22;8258;51.020;4.248;2023-08-17T08:28:44;21.10;99.90
16301;DHT22;8258;51.020;4.248;2023-08-17T08:31:12;21.30;99.90
16301;DHT22;8258;51.020;4.248;2023-08-17T08:33:39;21.60;99.90
16301;DHT22;8258;51.020;4.248;2023-08-17T08:36:06;21.80;99.90
16301;DHT22;8258;51.020;4.248;2023-08-17T08:38:33;21.80;99.90
16301;DHT22;8258;51.020;4.248;2023-08-17T08:41:01;21.60;99.90
16301;DHT22;8258;51.020;4.248;2023-08-17T08:43:29;21.50;99.90
16301;DHT22;8258;51.020;4.248;2023-08-17T08:45:58;21.40;99.90
16301;DHT22;8258;51.020;4.248;2023-08-17T08:48:28;21.20;99.90
16301;DHT22;8258;51.020;4.248;2023-08-17T08:50:56;21.00;99.90
16301;DHT22;8258;51.020;4.248;2023-08-17T08:53:29;21.00;99.90
16301;DHT22;8258;51.020;4.248;2023-08-17T08:55:59;21.30;99.90
16301;DHT22;8258;51.020;4.248;2023-08-17T08:58:26;21.50;99.90
16301;DHT22;8258;51.020;4.248;2023-08-17T09:06:07;21.50;99.90
16301;DHT22;8258;51.020;4.248;2023-08-17T09:08:36;21.60;99.90
16301;DHT22;8258;51.020;4.248;2023-08-17T09:11:03;21.50;99.90
16301;DHT22;8258;51.020;4.248;2023-08-17T09:13:30;21.50;99.90
16301;DHT22;8258;51.020;4.248;2023-08-17T09:15:59;21.50;99.90
16301;DHT22;8258;51.020;4.248;2023-08-17T09:18:26;21.60;99.90
16301;DHT22;8258;51.020;4.248;2023-08-17T09:20:54;21.50;99.90
16301;DHT22;8258;51.020;4.248;2023-08-17T09:23:23;21.50;99.90
16301;DHT22;8258;51.020;4.248;2023-08-17T09:25:50;21.40;99.90
16301;DHT22;8258;51.020;4.248;2023-08-17T09:28:23;21.30;99.90
16301;DHT22;8258;51.020;4.248;2023-08-17T09:30:52;21.30;99.90
16301;DHT22;8258;51.020;4.248;2023-08-17T09:33:19;21.30;99.90
16301;DHT22;8258;51.020;4.248;2023-08-17T09:35:46;21.20;99.90
16301;DHT22;8258;51.020;4.248;2023-08-17T09:38:13;21.20;99.90
16301;DHT22;8258;51.020;4.248;2023-08-17T09:40:42;21.40;99.90
16301;DHT22;8258;51.020;4.248;2023-08-17T09:43:09;21.70;99.90
16301;DHT22;8258;51.020;4.248;2023-08-17T09:45:37;21.90;99.90
16301;DHT22;8258;51.020;4.248;2023-08-17T09:48:05;22.70;99.90
16301;DHT22;8258;51.020;4.248;2023-08-17T09:50:33;24.20;99.90
16301;DHT22;8258;51.020;4.248;2023-08-17T09:53:01;25.90;99.90
16301;DHT22;8258;51.020;4.248;2023-08-17T09:55:30;27.10;99.90
16301;DHT22;8258;51.020;4.248;2023-08-17T09:57:59;28.40;99.90
16301;DHT22;8258;51.020;4.248;2023-08-17T10:00:27;28.50;99.90
16301;DHT22;8258;51.020;4.248;2023-08-17T10:02:55;27.90;99.90
16301;DHT22;8258;51.020;4.248;2023-08-17T10:05:25;27.60;99.90
16301;DHT22;8258;51.020;4.248;2023-08-17T10:07:57;28.40;99.90
16301;DHT22;8258;51.020;4.248;2023-08-17T10:10:26;28.80;99.90
16301;DHT22;8258;51.020;4.248;2023-08-17T10:13:00;28.40;99.90
16301;DHT22;8258;51.020;4.248;2023-08-17T10:15:34;27.80;99.90
16301;DHT22;8258;51.020;4.248;2023-08-17T10:18:09;27.10;99.90
16301;DHT22;8258;51.020;4.248;2023-08-17T10:20:42;26.90;99.90
16301;DHT22;8258;51.020;4.248;2023-08-17T10:23:14;26.10;99.90
16301;DHT22;8258;51.020;4.248;2023-08-17T10:25:42;25.40;99.90
16301;DHT22;8258;51.020;4.248;2023-08-17T10:28:12;25.10;99.90
16301;DHT22;8258;51.020;4.248;2023-08-17T10:30:39;25.00;99.90
16301;DHT22;8258;51.020;4.248;2023-08-17T10:33:06;25.00;99.90
16301;DHT22;8258;51.020;4.248;2023-08-17T10:35:35;25.00;99.90
16301;DHT22;8258;51.020;4.248;2023-08-17T10:38:04;25.30;99.90
16301;DHT22;8258;51.020;4.248;2023-08-17T10:40:35;25.60;99.90
16301;DHT22;8258;51.020;4.248;2023-08-17T10:43:03;25.60;99.90
16301;DHT22;8258;51.020;4.248;2023-08-17T10:45:32;25.30;99.90
16301;DHT22;8258;51.020;4.248;2023-08-17T10:50:59;24.70;99.90
16301;DHT22;8258;51.020;4.248;2023-08-17T10:53:26;24.60;99.90
16301;DHT22;8258;51.020;4.248;2023-08-17T10:55:57;24.60;99.90
16301;DHT22;8258;51.020;4.248;2023-08-17T10:58:24;24.40;99.90
16301;DHT22;8258;51.020;4.248;2023-08-17T11:00:55;24.10;99.90
16301;DHT22;8258;51.020;4.248;2023-08-17T11:03:22;24.00;99.90
16301;DHT22;8258;51.020;4.248;2023-08-17T11:05:51;23.90;99.90
16301;DHT22;8258;51.020;4.248;2023-08-17T11:08:26;23.90;99.90
16301;DHT22;8258;51.020;4.248;2023-08-17T11:10:58;23.50;99.90
16301;DHT22;8258;51.020;4.248;2023-08-17T11:13:27;23.40;99.90
16301;DHT22;8258;51.020;4.248;2023-08-17T11:15:57;23.20;99.90
16301;DHT22;8258;51.020;4.248;2023-08-17T11:18:24;23.30;99.90
16301;DHT22;8258;51.020;4.248;2023-08-17T11:20:52;23.20;99.90
16301;DHT22;8258;51.020;4.248;2023-08-17T11:23:19;23.20;99.90
16301;DHT22;8258;51.020;4.248;2023-08-17T11:25:47;23.30;99.90
16301;DHT22;8258;51.020;4.248;2023-08-17T11:28:14;23.20;99.90
16301;DHT22;8258;51.020;4.248;2023-08-17T11:30:41;23.40;99.90
16301;DHT22;8258;51.020;4.248;2023-08-17T11:33:10;23.40;99.90
16301;DHT22;8258;51.020;4.248;2023-08-17T11:35:37;23.30;99.90
16301;DHT22;8258;51.020;4.248;2023-08-17T11:38:05;23.20;99.90
16301;DHT22;8258;51.020;4.248;2023-08-17T11:40:33;22.90;99.90
16301;DHT22;8258;51.020;4.248;2023-08-17T11:43:00;22.70;99.90
16301;DHT22;8258;51.020;4.248;2023-08-17T11:45:27;22.60;99.90
16301;DHT22;8258;51.020;4.248;2023-08-17T11:47:54;22.60;99.90
16301;DHT22;8258;51.020;4.248;2023-08-17T11:50:24;22.60;99.90
16301;DHT22;8258;51.020;4.248;2023-08-17T11:52:51;22.20;99.90
16301;DHT22;8258;51.020;4.248;2023-08-17T11:55:18;22.20;99.90
16301;DHT22;8258;51.020;4.248;2023-08-17T11:57:46;22.40;99.90
16301;DHT22;8258;51.020;4.248;2023-08-17T12:00:18;22.40;99.90
16301;DHT22;8258;51.020;4.248;2023-08-17T12:02:47;22.40;99.90
16301;DHT22;8258;51.020;4.248;2023-08-17T12:05:19;22.40;99.90
16301;DHT22;8258;51.020;4.248;2023-08-17T12:07:47;22.60;99.90
16301;DHT22;8258;51.020;4.248;2023-08-17T12:10:15;22.80;99.90
16301;DHT22;8258;51.020;4.248;2023-08-17T12:12:42;22.90;99.90
16301;DHT22;8258;51.020;4.248;2023-08-17T12:15:10;23.10;99.90
16301;DHT22;8258;51.020;4.248;2023-08-17T12:17:43;23.20;99.90
16301;DHT22;8258;51.020;4.248;2023-08-17T12:20:15;23.20;99.90
16301;DHT22;8258;51.020;4.248;2023-08-17T12:22:43;23.30;99.90
16301;DHT22;8258;51.020;4.248;2023-08-17T12:25:12;23.50;99.90
16301;DHT22;8258;51.020;4.248;2023-08-17T12:27:39;23.80;99.90
16301;DHT22;8258;51.020;4.248;2023-08-17T12:30:12;24.00;99.90
16301;DHT22;8258;51.020;4.248;2023-08-17T12:32:39;24.00;99.90
16301;DHT22;8258;51.020;4.248;2023-08-17T12:35:07;24.00;99.90
16301;DHT22;8258;51.020;4.248;2023-08-17T12:37:36;24.20;99.90
16301;DHT22;8258;51.020;4.248;2023-08-17T12:40:03;24.30;99.90
16301;DHT22;8258;51.020;4.248;2023-08-17T12:42:32;24.60;99.90
16301;DHT22;8258;51.020;4.248;2023-08-17T12:44:59;24.40;99.90
16301;DHT22;8258;51.020;4.248;2023-08-17T12:47:26;24.20;99.90
16301;DHT22;8258;51.020;4.248;2023-08-17T12:49:53;24.20;99.90
16301;DHT22;8258;51.020;4.248;2023-08-17T12:52:20;24.10;99.90
16301;DHT22;8258;51.020;4.248;2023-08-17T12:54:47;24.30;99.90
16301;DHT22;8258;51.020;4.248;2023-08-17T12:57:13;24.40;99.90
16301;DHT22;8258;51.020;4.248;2023-08-17T12:59:42;24.30;99.90
16301;DHT22;8258;51.020;4.248;2023-08-17T13:02:09;24.50;99.90
16301;DHT22;8258;51.020;4.248;2023-08-17T13:04:36;24.60;99.90
16301;DHT22;8258;51.020;4.248;2023-08-17T13:07:03;24.70;99.90
16301;DHT22;8258;51.020;4.248;2023-08-17T13:09:30;24.90;99.90
16301;DHT22;8258;51.020;4.248;2023-08-17T13:11:57;24.90;99.90
16301;DHT22;8258;51.020;4.248;2023-08-17T13:14:25;24.70;99.90
16301;DHT22;8258;51.020;4.248;2023-08-17T13:16:54;24.60;99.90
16301;DHT22;8258;51.020;4.248;2023-08-17T13:19:21;24.20;99.90
16301;DHT22;8258;51.020;4.248;2023-08-17T13:21:48;23.90;99.90
16301;DHT22;8258;51.020;4.248;2023-08-17T13:24:15;24.00;99.90
16301;DHT22;8258;51.020;4.248;2023-08-17T13:26:42;24.30;99.90
16301;DHT22;8258;51.020;4.248;2023-08-17T13:29:09;24.30;99.90
16301;DHT22;8258;51.020;4.248;2023-08-17T13:31:36;23.90;99.90
16301;DHT22;8258;51.020;4.248;2023-08-17T13:34:04;23.80;99.90
16301;DHT22;8258;51.020;4.248;2023-08-17T13:36:31;23.90;99.90
16301;DHT22;8258;51.020;4.248;2023-08-17T13:38:58;24.40;99.90
16301;DHT22;8258;51.020;4.248;2023-08-17T13:41:25;24.50;99.90
16301;DHT22;8258;51.020;4.248;2023-08-17T13:43:52;24.60;99.90
16301;DHT22;8258;51.020;4.248;2023-08-17T13:46:19;24.60;99.90
16301;DHT22;8258;51.020;4.248;2023-08-17T13:48:46;24.60;99.90
16301;DHT22;8258;51.020;4.248;2023-08-17T13:51:14;24.90;99.90
16301;DHT22;8258;51.020;4.248;2023-08-17T13:53:41;24.70;99.90
16301;DHT22;8258;51.020;4.248;2023-08-17T13:56:08;24.60;99.90
16301;DHT22;8258;51.020;4.248;2023-08-17T13:58:35;24.40;99.90
16301;DHT22;8258;51.020;4.248;2023-08-17T14:01:02;24.30;99.90
16301;DHT22;8258;51.020;4.248;2023-08-17T14:03:29;24.30;99.90
16301;DHT22;8258;51.020;4.248;2023-08-17T14:05:56;24.20;99.90
16301;DHT22;8258;51.020;4.248;2023-08-17T14:08:24;24.10;99.90
16301;DHT22;8258;51.020;4.248;2023-08-17T14:10:51;24.00;99.90
16301;DHT22;8258;51.020;4.248;2023-08-17T14:13:18;24.00;99.90
16301;DHT22;8258;51.020;4.248;2023-08-17T14:15:45;23.80;99.90
16301;DHT22;8258;51.020;4.248;2023-08-17T14:18:12;23.80;99.90
16301;DHT22;8258;51.020;4.248;2023-08-17T14:20:39;23.90;99.90
16301;DHT22;8258;51.020;4.248;2023-08-17T14:23:06;24.30;99.90
16301;DHT22;8258;51.020;4.248;2023-08-17T14:25:34;24.60;99.90
16301;DHT22;8258;51.020;4.248;2023-08-17T14:28:04;24.80;99.90
16301;DHT22;8258;51.020;4.248;2023-08-17T14:30:33;24.90;99.90
16301;DHT22;8258;51.020;4.248;2023-08-17T14:32:59;25.10;99.90
16301;DHT22;8258;51.020;4.248;2023-08-17T14:35:27;25.40;99.90
16301;DHT22;8258;51.020;4.248;2023-08-17T14:37:54;26.40;99.90
16301;DHT22;8258;51.020;4.248;2023-08-17T14:40:23;27.60;99.90
16301;DHT22;8258;51.020;4.248;2023-08-17T14:42:51;28.10;99.90
16301;DHT22;8258;51.020;4.248;2023-08-17T14:45:18;28.80;99.90
16301;DHT22;8258;51.020;4.248;2023-08-17T14:47:45;28.20;99.90
16301;DHT22;8258;51.020;4.248;2023-08-17T14:50:11;28.40;99.90
16301;DHT22;8258;51.020;4.248;2023-08-17T14:52:39;28.00;99.90
16301;DHT22;8258;51.020;4.248;2023-08-17T14:55:07;27.30;99.90
16301;DHT22;8258;51.020;4.248;2023-08-17T14:57:34;26.50;99.90
16301;DHT22;8258;51.020;4.248;2023-08-17T15:00:03;25.90;99.90
16301;DHT22;8258;51.020;4.248;2023-08-17T15:02:30;25.80;99.90
16301;DHT22;8258;51.020;4.248;2023-08-17T15:04:57;25.80;99.90
16301;DHT22;8258;51.020;4.248;2023-08-17T15:07:24;25.60;99.90
16301;DHT22;8258;51.020;4.248;2023-08-17T15:09:51;25.60;99.90
16301;DHT22;8258;51.020;4.248;2023-08-17T15:12:19;25.20;99.90
16301;DHT22;8258;51.020;4.248;2023-08-17T15:14:46;25.00;99.90
16301;DHT22;8258;51.020;4.248;2023-08-17T15:17:14;25.00;99.90
16301;DHT22;8258;51.020;4.248;2023-08-17T15:19:41;25.00;99.90
16301;DHT22;8258;51.020;4.248;2023-08-17T15:22:08;24.80;99.90
16301;DHT22;8258;51.020;4.248;2023-08-17T15:24:35;24.80;99.90
16301;DHT22;8258;51.020;4.248;2023-08-17T15:27:03;24.70;99.90
16301;DHT22;8258;51.020;4.248;2023-08-17T15:29:29;24.60;99.90
16301;DHT22;8258;51.020;4.248;2023-08-17T15:31:56;24.40;99.90
16301;DHT22;8258;51.020;4.248;2023-08-17T15:34:25;24.40;99.90
16301;DHT22;8258;51.020;4.248;2023-08-17T15:36:52;24.40;99.90
16301;DHT22;8258;51.020;4.248;2023-08-17T15:39:19;24.00;99.90
16301;DHT22;8258;51.020;4.248;2023-08-17T15:41:46;24.00;99.90
16301;DHT22;8258;51.020;4.248;2023-08-17T15:44:13;23.70;99.90
16301;DHT22;8258;51.020;4.248;2023-08-17T15:46:40;23.60;99.90
16301;DHT22;8258;51.020;4.248;2023-08-17T15:49:06;23.80;99.90
16301;DHT22;8258;51.020;4.248;2023-08-17T15:51:35;23.90;99.90
16301;DHT22;8258;51.020;4.248;2023-08-17T15:54:02;24.00;99.90
16301;DHT22;8258;51.020;4.248;2023-08-17T15:56:29;23.80;99.90